sensor_id;sensor_type;location;lat;lon;timestamp;temperature;humidity
30186;DHT22;31152;49.190;8.122;2024-03-23T00:54:01;11.70;99.90
30186;DHT22;31152;49.190;8.122;2024-03-23T00:56:29;11.70;99.90
30186;DHT22;31152;49.190;8.122;2024-03-23T00:58:55;11.70;99.90
30186;DHT22;31152;49.190;8.122;2024-03-23T01:01:21;11.70;99.90
30186;DHT22;31152;49.190;8.122;2024-03-23T01:03:47;11.70;99.90
30186;DHT22;31152;49.190;8.122;2024-03-23T01:06:15;11.70;99.90
30186;DHT22;31152;49.190;8.122;2024-03-23T01:08:41;11.70;99.90
30186;DHT22;31152;49.190;8.122;2024-03-23T01:11:06;11.70;99.90
30186;DHT22;31152;49.190;8.122;2024-03-23T01:13:32;11.70;99.90
30186;DHT22;31152;49.190;8.122;2024-03-23T01:15:58;11.70;99.90
30186;DHT22;31152;49.190;8.122;2024-03-23T01:18:24;11.70;99.90
30186;DHT22;31152;49.190;8.122;2024-03-23T01:20:52;11.80;99.90
30186;DHT22;31152;49.190;8.122;2024-03-23T01:23:20;11.70;99.90
30186;DHT22;31152;49.190;8.122;2024-03-23T01:25:53;11.70;99.90
30186;DHT22;31152;49.190;8.122;2024-03-23T01:28:19;11.70;99.90
30186;DHT22;31152;49.190;8.122;2024-03-23T01:30:45;11.70;99.90
30186;DHT22;31152;49.190;8.122;2024-03-23T01:33:11;11.70;99.90
30186;DHT22;31152;49.190;8.122;2024-03-23T01:35:37;11.70;99.90
30186;DHT22;31152;49.190;8.122;2024-03-23T01:38:03;11.70;99.90
30186;DHT22;31152;49.190;8.122;2024-03-23T01:40:31;11.70;99.90
30186;DHT22;31152;49.190;8.122;2024-03-23T01:43:01;11.70;99.90
30186;DHT22;31152;49.190;8.122;2024-03-23T01:45:58;11.80;99.90
30186;DHT22;31152;49.190;8.122;2024-03-23T01:48:51;11.80;99.90
30186;DHT22;31152;49.190;8.122;2024-03-23T01:51:17;11.90;99.90
30186;DHT22;31152;49.190;8.122;2024-03-23T01:53:43;12.00;99.90
30186;DHT22;31152;49.190;8.122;2024-03-23T01:56:09;12.10;99.90
30186;DHT22;31152;49.190;8.122;2024-03-23T01:58:34;12.10;99.90
30186;DHT22;31152;49.190;8.122;2024-03-23T02:01:03;12.20;99.90
30186;DHT22;31152;49.190;8.122;2024-03-23T02:03:29;12.20;99.90
30186;DHT22;31152;49.190;8.122;2024-03-23T02:05:56;12.20;99.90
30186;DHT22;31152;49.190;8.122;2024-03-23T02:08:27;12.20;99.90
30186;DHT22;31152;49.190;8.122;2024-03-23T02:10:55;12.20;99.90
30186;DHT22;31152;49.190;8.122;2024-03-23T02:13:21;12.30;99.90
30186;DHT22;31152;49.190;8.122;2024-03-23T02:15:47;12.40;99.90
30186;DHT22;31152;49.190;8.122;2024-03-23T02:18:20;12.50;99.90
30186;DHT22;31152;49.190;8.122;2024-03-23T02:20:46;12.60;99.90
30186;DHT22;31152;49.190;8.122;2024-03-23T02:23:16;12.60;99.90
30186;DHT22;31152;49.190;8.122;2024-03-23T02:25:44;12.70;99.90
30186;DHT22;31152;49.190;8.122;2024-03-23T02:28:10;12.80;99.90
30186;DHT22;31152;49.190;8.122;2024-03-23T02:30:36;12.80;99.90
30186;DHT22;31152;49.190;8.122;2024-03-23T02:33:07;13.00;99.90
30186;DHT22;31152;49.190;8.122;2024-03-23T02:35:33;13.00;99.90
30186;DHT22;31152;49.190;8.122;2024-03-23T02:37:59;13.00;99.90
30186;DHT22;31152;49.190;8.122;2024-03-23T02:40:25;13.10;99.90
30186;DHT22;31152;49.190;8.122;2024-03-23T02:42:54;13.20;99.90
30186;DHT22;31152;49.190;8.122;2024-03-23T02:45:19;13.20;99.90
30186;DHT22;31152;49.190;8.122;2024-03-23T02:47:45;13.20;99.90
30186;DHT22;31152;49.190;8.122;2024-03-23T02:50:11;13.10;99.90
30186;DHT22;31152;49.190;8.122;2024-03-23T02:52:37;13.10;99.90
30186;DHT22;31152;49.190;8.122;2024-03-23T02:55:03;13.00;99.90
30186;DHT22;31152;49.190;8.122;2024-03-23T02:57:30;13.00;99.90
30186;DHT22;31152;49.190;8.122;2024-03-23T02:59:56;12.90;99.90
30186;DHT22;31152;49.190;8.122;2024-03-23T03:02:22;12.90;99.90
30186;DHT22;31152;49.190;8.122;2024-03-23T03:04:47;12.90;99.90
30186;DHT22;31152;49.190;8.122;2024-03-23T03:07:16;12.90;99.90
30186;DHT22;31152;49.190;8.122;2024-03-23T03:09:42;12.90;99.90
30186;DHT22;31152;49.190;8.122;2024-03-23T03:12:08;12.90;99.90
30186;DHT22;31152;49.190;8.122;2024-03-23T03:14:35;12.90;99.90
30186;DHT22;31152;49.190;8.122;2024-03-23T03:17:03;12.90;99.90
30186;DHT22;31152;49.190;8.122;2024-03-23T03:19:29;12.90;99.90
30186;DHT22;31152;49.190;8.122;2024-03-23T03:22:02;12.80;99.90
30186;DHT22;31152;49.190;8.122;2024-03-23T03:24:30;12.80;99.90
30186;DHT22;31152;49.190;8.122;2024-03-23T03:26:55;12.70;99.90
30186;DHT22;31152;49.190;8.122;2024-03-23T03:29:22;12.70;99.90
30186;DHT22;31152;49.190;8.122;2024-03-23T03:31:48;12.60;99.90
30186;DHT22;31152;49.190;8.122;2024-03-23T03:34:15;12.60;99.90
30186;DHT22;31152;49.190;8.122;2024-03-23T03:36:43;12.60;99.90
30186;DHT22;31152;49.190;8.122;2024-03-23T03:39:09;12.40;99.90
30186;DHT22;31152;49.190;8.122;2024-03-23T03:41:35;12.40;99.90
30186;DHT22;31152;49.190;8.122;2024-03-23T03:44:04;12.40;99.90
30186;DHT22;31152;49.190;8.122;2024-03-23T03:46:29;12.30;99.90
30186;DHT22;31152;49.190;8.122;2024-03-23T03:48:55;12.30;99.90
30186;DHT22;31152;49.190;8.122;2024-03-23T03:51:21;12.30;99.90
30186;DHT22;31152;49.190;8.122;2024-03-23T03:53:47;12.30;99.90
30186;DHT22;31152;49.190;8.122;2024-03-23T03:56:13;12.30;99.90
30186;DHT22;31152;49.190;8.122;2024-03-23T03:58:38;12.30;99.90
30186;DHT22;31152;49.190;8.122;2024-03-23T04:01:08;12.30;99.90
30186;DHT22;31152;49.190;8.122;2024-03-23T04:03:34;12.30;99.90
30186;DHT22;31152;49.190;8.122;2024-03-23T04:06:02;12.20;99.90
30186;DHT22;31152;49.190;8.122;2024-03-23T04:08:28;12.20;99.90
30186;DHT22;31152;49.190;8.122;2024-03-23T04:10:54;12.10;99.90
30186;DHT22;31152;49.190;8.122;2024-03-23T04:13:20;12.00;99.90
30186;DHT22;31152;49.190;8.122;2024-03-23T04:15:46;12.00;99.90
30186;DHT22;31152;49.190;8.122;2024-03-23T04:18:14;11.90;99.90
30186;DHT22;31152;49.190;8.122;2024-03-23T04:20:40;11.90;99.90
30186;DHT22;31152;49.190;8.122;2024-03-23T04:26:09;11.80;99.90
30186;DHT22;31152;49.190;8.122;2024-03-23T04:28:37;11.80;99.90
30186;DHT22;31152;49.190;8.122;2024-03-23T04:31:04;11.70;99.90
30186;DHT22;31152;49.190;8.122;2024-03-23T04:33:32;11.60;99.90
30186;DHT22;31152;49.190;8.122;2024-03-23T04:36:00;11.60;99.90
30186;DHT22;31152;49.190;8.122;2024-03-23T04:38:26;11.50;99.90
30186;DHT22;31152;49.190;8.122;2024-03-23T04:40:59;11.50;99.90
30186;DHT22;31152;49.190;8.122;2024-03-23T04:43:28;11.50;99.90
30186;DHT22;31152;49.190;8.122;2024-03-23T04:45:54;11.40;99.90
30186;DHT22;31152;49.190;8.122;2024-03-23T04:48:23;11.30;99.90
30186;DHT22;31152;49.190;8.122;2024-03-23T04:50:49;11.20;99.90
30186;DHT22;31152;49.190;8.122;2024-03-23T04:53:18;11.10;99.90
30186;DHT22;31152;49.190;8.122;2024-03-23T04:55:44;11.10;99.90
30186;DHT22;31152;49.190;8.122;2024-03-23T05:01:27;10.90;99.90
30186;DHT22;31152;49.190;8.122;2024-03-23T05:03:57;10.80;99.90
30186;DHT22;31152;49.190;8.122;2024-03-23T05:06:23;10.80;99.90
30186;DHT22;31152;49.190;8.122;2024-03-23T05:08:49;10.70;99.90
30186;DHT22;31152;49.190;8.122;2024-03-23T05:11:54;10.70;99.90
30186;DHT22;31152;49.190;8.122;2024-03-23T05:14:47;10.60;99.90
30186;DHT22;31152;49.190;8.122;2024-03-23T05:17:15;10.50;99.90
30186;DHT22;31152;49.190;8.122;2024-03-23T05:19:41;10.50;99.90
30186;DHT22;31152;49.190;8.122;2024-03-23T05:22:11;10.40;99.90
30186;DHT22;31152;49.190;8.122;2024-03-23T05:24:37;10.40;99.90
30186;DHT22;31152;49.190;8.122;2024-03-23T05:27:03;10.30;99.90
30186;DHT22;31152;49.190;8.122;2024-03-23T05:29:31;10.30;99.90
30186;DHT22;31152;49.190;8.122;2024-03-23T05:31:57;10.10;99.90
30186;DHT22;31152;49.190;8.122;2024-03-23T05:34:23;10.10;99.90
30186;DHT22;31152;49.190;8.122;2024-03-23T05:36:51;10.10;99.90
30186;DHT22;31152;49.190;8.122;2024-03-23T05:39:16;10.10;99.90
30186;DHT22;31152;49.190;8.122;2024-03-23T05:41:42;10.10;99.90
30186;DHT22;31152;49.190;8.122;2024-03-23T05:44:08;10.00;99.90
30186;DHT22;31152;49.190;8.122;2024-03-23T05:46:37;10.00;99.90
30186;DHT22;31152;49.190;8.122;2024-03-23T05:49:11;10.00;99.90
30186;DHT22;31152;49.190;8.122;2024-03-23T05:51:56;10.00;99.90
30186;DHT22;31152;49.190;8.122;2024-03-23T05:54:31;9.90;99.90
30186;DHT22;31152;49.190;8.122;2024-03-23T05:57:13;9.90;99.90
30186;DHT22;31152;49.190;8.122;2024-03-23T05:59:39;9.80;99.90
30186;DHT22;31152;49.190;8.122;2024-03-23T06:02:15;9.80;99.90
30186;DHT22;31152;49.190;8.122;2024-03-23T06:04:47;9.80;99.90
30186;DHT22;31152;49.190;8.122;2024-03-23T06:07:41;9.80;99.90
30186;DHT22;31152;49.190;8.122;2024-03-23T06:10:07;9.70;99.90
30186;DHT22;31152;49.190;8.122;2024-03-23T06:12:33;9.60;99.90
30186;DHT22;31152;49.190;8.122;2024-03-23T06:15:02;9.60;99.90
30186;DHT22;31152;49.190;8.122;2024-03-23T06:17:43;9.50;99.90
30186;DHT22;31152;49.190;8.122;2024-03-23T06:20:13;9.50;99.90
30186;DHT22;31152;49.190;8.122;2024-03-23T06:22:49;9.40;99.90
30186;DHT22;31152;49.190;8.122;2024-03-23T06:25:38;9.40;99.90
30186;DHT22;31152;49.190;8.122;2024-03-23T06:28:11;9.40;99.90
30186;DHT22;31152;49.190;8.122;2024-03-23T06:31:12;9.40;99.90
30186;DHT22;31152;49.190;8.122;2024-03-23T06:33:44;9.40;99.90
30186;DHT22;31152;49.190;8.122;2024-03-23T06:36:10;9.40;99.90
30186;DHT22;31152;49.190;8.122;2024-03-23T06:38:37;9.40;99.90
30186;DHT22;31152;49.190;8.122;2024-03-23T06:41:06;9.30;99.90
30186;DHT22;31152;49.190;8.122;2024-03-23T06:43:32;9.10;99.90
30186;DHT22;31152;49.190;8.122;2024-03-23T06:46:01;8.80;99.90
30186;DHT22;31152;49.190;8.122;2024-03-23T06:48:27;8.70;99.90
30186;DHT22;31152;49.190;8.122;2024-03-23T06:50:57;8.60;99.90
30186;DHT22;31152;49.190;8.122;2024-03-23T06:53:23;8.50;99.90
30186;DHT22;31152;49.190;8.122;2024-03-23T06:55:53;8.50;99.90
30186;DHT22;31152;49.190;8.122;2024-03-23T06:58:24;8.50;99.90
30186;DHT22;31152;49.190;8.122;2024-03-23T07:00:50;8.50;99.90
30186;DHT22;31152;49.190;8.122;2024-03-23T07:03:16;8.50;99.90
30186;DHT22;31152;49.190;8.122;2024-03-23T07:05:44;8.60;99.90
30186;DHT22;31152;49.190;8.122;2024-03-23T07:08:12;8.50;99.90
30186;DHT22;31152;49.190;8.122;2024-03-23T07:10:41;8.80;99.90
30186;DHT22;31152;49.190;8.122;2024-03-23T07:13:07;8.90;99.90
30186;DHT22;31152;49.190;8.122;2024-03-23T07:15:55;8.90;99.90
30186;DHT22;31152;49.190;8.122;2024-03-23T07:18:21;9.20;99.90
30186;DHT22;31152;49.190;8.122;2024-03-23T07:20:54;9.30;99.90
30186;DHT22;31152;49.190;8.122;2024-03-23T07:23:24;9.40;99.90
30186;DHT22;31152;49.190;8.122;2024-03-23T07:26:04;9.40;99.90
30186;DHT22;31152;49.190;8.122;2024-03-23T07:28:33;9.40;99.90
30186;DHT22;31152;49.190;8.122;2024-03-23T07:31:08;9.30;99.90
30186;DHT22;31152;49.190;8.122;2024-03-23T07:33:41;9.20;99.90
30186;DHT22;31152;49.190;8.122;2024-03-23T07:36:08;9.20;99.90
30186;DHT22;31152;49.190;8.122;2024-03-23T07:38:34;9.30;99.90
30186;DHT22;31152;49.190;8.122;2024-03-23T07:41:09;9.40;99.90
30186;DHT22;31152;49.190;8.122;2024-03-23T07:43:39;9.40;99.90
30186;DHT22;31152;49.190;8.122;2024-03-23T07:46:08;9.50;99.90
30186;DHT22;31152;49.190;8.122;2024-03-23T07:48:38;9.50;99.90
30186;DHT22;31152;49.190;8.122;2024-03-23T07:51:16;9.40;99.90
30186;DHT22;31152;49.190;8.122;2024-03-23T07:54:27;9.40;99.90
30186;DHT22;31152;49.190;8.122;2024-03-23T07:57:16;9.50;99.90
30186;DHT22;31152;49.190;8.122;2024-03-23T07:59:44;9.50;99.90
30186;DHT22;31152;49.190;8.122;2024-03-23T08:02:10;9.60;99.90
30186;DHT22;31152;49.190;8.122;2024-03-23T08:04:36;9.60;99.90
30186;DHT22;31152;49.190;8.122;2024-03-23T08:07:04;9.70;99.90
30186;DHT22;31152;49.190;8.122;2024-03-23T08:09:30;9.70;99.90
30186;DHT22;31152;49.190;8.122;2024-03-23T08:11:56;9.70;99.90
30186;DHT22;31152;49.190;8.122;2024-03-23T08:14:24;9.80;99.90
30186;DHT22;31152;49.190;8.122;2024-03-23T08:16:50;9.80;99.90
30186;DHT22;31152;49.190;8.122;2024-03-23T08:19:16;9.70;99.90
30186;DHT22;31152;49.190;8.122;2024-03-23T08:21:42;9.70;99.90
30186;DHT22;31152;49.190;8.122;2024-03-23T08:24:08;9.70;99.90
30186;DHT22;31152;49.190;8.122;2024-03-23T08:26:34;9.70;99.90
30186;DHT22;31152;49.190;8.122;2024-03-23T08:28:59;9.80;99.90
30186;DHT22;31152;49.190;8.122;2024-03-23T08:31:25;9.80;99.90
30186;DHT22;31152;49.190;8.122;2024-03-23T08:33:51;10.00;99.90
30186;DHT22;31152;49.190;8.122;2024-03-23T08:36:17;10.10;99.90
30186;DHT22;31152;49.190;8.122;2024-03-23T08:38:43;10.20;99.90
30186;DHT22;31152;49.190;8.122;2024-03-23T08:41:12;10.00;99.90
30186;DHT22;31152;49.190;8.122;2024-03-23T08:44:12;10.10;99.90
30186;DHT22;31152;49.190;8.122;2024-03-23T08:47:34;10.30;99.90
30186;DHT22;31152;49.190;8.122;2024-03-23T08:51:16;10.60;99.90
30186;DHT22;31152;49.190;8.122;2024-03-23T08:53:46;10.80;99.90
30186;DHT22;31152;49.190;8.122;2024-03-23T08:56:15;10.50;99.90
30186;DHT22;31152;49.190;8.122;2024-03-23T08:58:43;10.30;99.90
30186;DHT22;31152;49.190;8.122;2024-03-23T09:01:12;10.20;99.90
30186;DHT22;31152;49.190;8.122;2024-03-23T09:03:41;10.20;99.90
30186;DHT22;31152;49.190;8.122;2024-03-23T09:06:08;10.30;99.90
30186;DHT22;31152;49.190;8.122;2024-03-23T09:08:34;10.50;99.90
30186;DHT22;31152;49.190;8.122;2024-03-23T09:11:09;10.50;99.90
30186;DHT22;31152;49.190;8.122;2024-03-23T09:13:37;10.40;99.90
30186;DHT22;31152;49.190;8.122;2024-03-23T09:16:04;10.20;99.90
30186;DHT22;31152;49.190;8.122;2024-03-23T09:18:34;10.10;99.90
30186;DHT22;31152;49.190;8.122;2024-03-23T09:21:04;10.00;99.90
30186;DHT22;31152;49.190;8.122;2024-03-23T09:23:38;10.00;99.90
30186;DHT22;31152;49.190;8.122;2024-03-23T09:26:07;10.00;99.90
30186;DHT22;31152;49.190;8.122;2024-03-23T09:28:38;10.10;99.90
30186;DHT22;31152;49.190;8.122;2024-03-23T09:31:04;10.10;99.90
30186;DHT22;31152;49.190;8.122;2024-03-23T09:33:31;10.10;99.90
30186;DHT22;31152;49.190;8.122;2024-03-23T09:35:56;10.00;99.90
30186;DHT22;31152;49.190;8.122;2024-03-23T09:38:23;10.00;99.90
30186;DHT22;31152;49.190;8.122;2024-03-23T09:40:56;10.00;99.90
30186;DHT22;31152;49.190;8.122;2024-03-23T09:43:24;10.00;99.90
30186;DHT22;31152;49.190;8.122;2024-03-23T09:45:51;10.10;99.90
30186;DHT22;31152;49.190;8.122;2024-03-23T09:48:20;10.10;99.90
30186;DHT22;31152;49.190;8.122;2024-03-23T09:50:46;10.00;99.90
30186;DHT22;31152;49.190;8.122;2024-03-23T09:53:13;10.00;99.90
30186;DHT22;31152;49.190;8.122;2024-03-23T09:55:45;10.00;99.90
30186;DHT22;31152;49.190;8.122;2024-03-23T09:58:16;10.10;99.90
30186;DHT22;31152;49.190;8.122;2024-03-23T10:00:44;10.00;99.90
30186;DHT22;31152;49.190;8.122;2024-03-23T10:03:13;10.00;99.90
30186;DHT22;31152;49.190;8.122;2024-03-23T10:05:41;9.80;99.90
30186;DHT22;31152;49.190;8.122;2024-03-23T10:08:17;9.70;99.90
30186;DHT22;31152;49.190;8.122;2024-03-23T10:10:44;9.80;99.90
30186;DHT22;31152;49.190;8.122;2024-03-23T10:13:10;9.70;99.90
30186;DHT22;31152;49.190;8.122;2024-03-23T10:15:41;9.70;99.90
30186;DHT22;31152;49.190;8.122;2024-03-23T10:18:20;9.60;99.90
30186;DHT22;31152;49.190;8.122;2024-03-23T10:23:35;9.90;99.90
30186;DHT22;31152;49.190;8.122;2024-03-23T10:28:56;10.40;99.90
30186;DHT22;31152;49.190;8.122;2024-03-23T10:31:25;10.60;99.90
30186;DHT22;31152;49.190;8.122;2024-03-23T10:33:51;10.70;99.90
30186;DHT22;31152;49.190;8.122;2024-03-23T10:36:20;10.90;99.90
30186;DHT22;31152;49.190;8.122;2024-03-23T10:38:50;10.90;99.90
30186;DHT22;31152;49.190;8.122;2024-03-23T10:41:16;11.10;99.90
30186;DHT22;31152;49.190;8.122;2024-03-23T10:43:43;11.00;99.90
30186;DHT22;31152;49.190;8.122;2024-03-23T10:46:13;11.10;99.90
30186;DHT22;31152;49.190;8.122;2024-03-23T10:48:39;11.30;99.90
30186;DHT22;31152;49.190;8.122;2024-03-23T10:51:08;11.70;99.10
30186;DHT22;31152;49.190;8.122;2024-03-23T10:53:37;12.00;99.20
30186;DHT22;31152;49.190;8.122;2024-03-23T10:56:04;12.20;98.30
30186;DHT22;31152;49.190;8.122;2024-03-23T10:58:46;12.20;95.50
30186;DHT22;31152;49.190;8.122;2024-03-23T11:01:13;12.00;93.60
30186;DHT22;31152;49.190;8.122;2024-03-23T11:03:46;11.90;93.60
30186;DHT22;31152;49.190;8.122;2024-03-23T11:06:37;12.10;93.10
30186;DHT22;31152;49.190;8.122;2024-03-23T11:09:04;12.10;93.20
30186;DHT22;31152;49.190;8.122;2024-03-23T11:11:49;12.20;93.00
30186;DHT22;31152;49.190;8.122;2024-03-23T11:14:22;12.30;93.50
30186;DHT22;31152;49.190;8.122;2024-03-23T11:17:08;12.20;93.70
30186;DHT22;31152;49.190;8.122;2024-03-23T11:19:36;12.30;92.80
30186;DHT22;31152;49.190;8.122;2024-03-23T11:22:09;12.20;94.10
30186;DHT22;31152;49.190;8.122;2024-03-23T11:24:38;12.00;93.70
30186;DHT22;31152;49.190;8.122;2024-03-23T11:27:15;12.20;93.90
30186;DHT22;31152;49.190;8.122;2024-03-23T11:29:41;12.60;93.70
30186;DHT22;31152;49.190;8.122;2024-03-23T11:32:10;12.80;93.50
30186;DHT22;31152;49.190;8.122;2024-03-23T11:34:36;12.90;92.10
30186;DHT22;31152;49.190;8.122;2024-03-23T11:37:05;12.90;92.20
30186;DHT22;31152;49.190;8.122;2024-03-23T11:39:33;13.00;92.00
30186;DHT22;31152;49.190;8.122;2024-03-23T11:42:01;13.10;91.50
30186;DHT22;31152;49.190;8.122;2024-03-23T11:44:27;13.30;90.80
30186;DHT22;31152;49.190;8.122;2024-03-23T11:47:07;13.50;90.00
30186;DHT22;31152;49.190;8.122;2024-03-23T11:49:36;13.70;89.20
30186;DHT22;31152;49.190;8.122;2024-03-23T11:52:06;13.50;90.20
30186;DHT22;31152;49.190;8.122;2024-03-23T11:54:35;13.40;88.90
30186;DHT22;31152;49.190;8.122;2024-03-23T11:57:07;13.20;85.00
30186;DHT22;31152;49.190;8.122;2024-03-23T12:02:00;12.20;90.00
30186;DHT22;31152;49.190;8.122;2024-03-23T12:04:30;11.90;90.60
30186;DHT22;31152;49.190;8.122;2024-03-23T12:07:15;11.90;91.10
30186;DHT22;31152;49.190;8.122;2024-03-23T12:09:45;11.70;91.30
30186;DHT22;31152;49.190;8.122;2024-03-23T12:12:16;11.50;92.00
30186;DHT22;31152;49.190;8.122;2024-03-23T12:15:05;11.10;92.20
30186;DHT22;31152;49.190;8.122;2024-03-23T12:17:32;10.60;96.60
30186;DHT22;31152;49.190;8.122;2024-03-23T12:19:58;10.20;99.90
30186;DHT22;31152;49.190;8.122;2024-03-23T12:22:24;10.00;99.90
30186;DHT22;31152;49.190;8.122;2024-03-23T12:24:50;10.10;99.90
30186;DHT22;31152;49.190;8.122;2024-03-23T12:27:19;10.40;99.90
30186;DHT22;31152;49.190;8.122;2024-03-23T12:29:45;10.50;99.90
30186;DHT22;31152;49.190;8.122;2024-03-23T12:32:14;10.50;99.10
30186;DHT22;31152;49.190;8.122;2024-03-23T12:34:40;10.00;99.90
30186;DHT22;31152;49.190;8.122;2024-03-23T12:37:07;9.20;99.90
30186;DHT22;31152;49.190;8.122;2024-03-23T12:39:33;8.70;99.90
30186;DHT22;31152;49.190;8.122;2024-03-23T12:42:01;8.60;99.90
30186;DHT22;31152;49.190;8.122;2024-03-23T12:44:32;8.60;99.90
30186;DHT22;31152;49.190;8.122;2024-03-23T12:46:58;8.70;99.90
30186;DHT22;31152;49.190;8.122;2024-03-23T12:49:24;9.00;99.90
30186;DHT22;31152;49.190;8.122;2024-03-23T12:51:55;9.50;99.90
30186;DHT22;31152;49.190;8.122;2024-03-23T12:54:21;9.60;99.90
30186;DHT22;31152;49.190;8.122;2024-03-23T12:56:50;9.80;99.90
30186;DHT22;31152;49.190;8.122;2024-03-23T12:59:15;10.20;99.90
30186;DHT22;31152;49.190;8.122;2024-03-23T13:01:42;10.50;99.90
30186;DHT22;31152;49.190;8.122;2024-03-23T13:04:11;10.70;99.90
30186;DHT22;31152;49.190;8.122;2024-03-23T13:06:39;10.10;99.90
30186;DHT22;31152;49.190;8.122;2024-03-23T13:09:05;9.90;99.90
30186;DHT22;31152;49.190;8.122;2024-03-23T13:11:31;9.70;99.90
30186;DHT22;31152;49.190;8.122;2024-03-23T13:14:00;9.70;99.90
30186;DHT22;31152;49.190;8.122;2024-03-23T13:16:26;9.70;99.90
30186;DHT22;31152;49.190;8.122;2024-03-23T13:18:51;9.80;99.90
30186;DHT22;31152;49.190;8.122;2024-03-23T13:21:17;10.00;99.90
30186;DHT22;31152;49.190;8.122;2024-03-23T13:23:46;10.40;99.90
30186;DHT22;31152;49.190;8.122;2024-03-23T13:26:13;10.70;99.90
30186;DHT22;31152;49.190;8.122;2024-03-23T13:28:42;11.00;99.00
30186;DHT22;31152;49.190;8.122;2024-03-23T13:31:07;10.80;99.20
30186;DHT22;31152;49.190;8.122;2024-03-23T13:33:34;10.70;98.50
30186;DHT22;31152;49.190;8.122;2024-03-23T13:36:00;10.70;98.60
30186;DHT22;31152;49.190;8.122;2024-03-23T13:38:31;10.50;99.30
30186;DHT22;31152;49.190;8.122;2024-03-23T13:41:00;9.90;99.90
30186;DHT22;31152;49.190;8.122;2024-03-23T13:43:27;9.10;99.90
30186;DHT22;31152;49.190;8.122;2024-03-23T13:45:57;8.50;99.90
30186;DHT22;31152;49.190;8.122;2024-03-23T13:48:25;8.30;99.90
30186;DHT22;31152;49.190;8.122;2024-03-23T13:51:02;8.20;99.90
30186;DHT22;31152;49.190;8.122;2024-03-23T13:53:28;8.50;99.90
30186;DHT22;31152;49.190;8.122;2024-03-23T13:55:54;8.70;99.90
30186;DHT22;31152;49.190;8.122;2024-03-23T13:58:20;9.10;99.90
30186;DHT22;31152;49.190;8.122;2024-03-23T14:00:47;9.40;99.90
30186;DHT22;31152;49.190;8.122;2024-03-23T14:03:15;9.80;99.90
30186;DHT22;31152;49.190;8.122;2024-03-23T14:05:42;9.90;99.90
30186;DHT22;31152;49.190;8.122;2024-03-23T14:08:11;10.20;99.90
30186;DHT22;31152;49.190;8.122;2024-03-23T14:10:40;10.10;99.90
30186;DHT22;31152;49.190;8.122;2024-03-23T14:13:07;10.10;99.90
30186;DHT22;31152;49.190;8.122;2024-03-23T14:15:33;10.10;99.90
30186;DHT22;31152;49.190;8.122;2024-03-23T14:17:59;10.10;99.90
30186;DHT22;31152;49.190;8.122;2024-03-23T14:20:25;10.20;99.90
30186;DHT22;31152;49.190;8.122;2024-03-23T14:22:53;10.50;99.90
30186;DHT22;31152;49.190;8.122;2024-03-23T14:25:19;10.50;99.90
30186;DHT22;31152;49.190;8.122;2024-03-23T14:27:46;10.70;99.90
30186;DHT22;31152;49.190;8.122;2024-03-23T14:30:13;10.80;99.90
30186;DHT22;31152;49.190;8.122;2024-03-23T14:32:39;11.00;99.90
30186;DHT22;31152;49.190;8.122;2024-03-23T14:35:06;11.10;99.90
30186;DHT22;31152;49.190;8.122;2024-03-23T14:37:33;10.90;99.90
30186;DHT22;31152;49.190;8.122;2024-03-23T14:40:03;10.70;99.90
30186;DHT22;31152;49.190;8.122;2024-03-23T14:42:32;10.80;99.90
30186;DHT22;31152;49.190;8.122;2024-03-23T14:44:58;11.20;99.90
30186;DHT22;31152;49.190;8.122;2024-03-23T14:47:26;11.40;99.90
30186;DHT22;31152;49.190;8.122;2024-03-23T14:49:52;11.60;99.90
30186;DHT22;31152;49.190;8.122;2024-03-23T14:52:18;11.80;99.90
30186;DHT22;31152;49.190;8.122;2024-03-23T14:54:44;12.00;99.00
30186;DHT22;31152;49.190;8.122;2024-03-23T14:57:12;12.00;99.00
30186;DHT22;31152;49.190;8.122;2024-03-23T14:59:38;12.00;98.40
30186;DHT22;31152;49.190;8.122;2024-03-23T15:02:10;11.90;98.70
30186;DHT22;31152;49.190;8.122;2024-03-23T15:04:38;12.00;98.50
30186;DHT22;31152;49.190;8.122;2024-03-23T15:07:07;12.10;98.00
30186;DHT22;31152;49.190;8.122;2024-03-23T15:09:33;11.80;97.80
30186;DHT22;31152;49.190;8.122;2024-03-23T15:11:59;11.60;98.00
30186;DHT22;31152;49.190;8.122;2024-03-23T15:14:25;11.50;98.90
30186;DHT22;31152;49.190;8.122;2024-03-23T15:16:51;11.20;98.50
30186;DHT22;31152;49.190;8.122;2024-03-23T15:19:18;10.90;98.70
30186;DHT22;31152;49.190;8.122;2024-03-23T15:21:44;10.70;99.30
30186;DHT22;31152;49.190;8.122;2024-03-23T15:24:10;10.50;99.90
30186;DHT22;31152;49.190;8.122;2024-03-23T15:26:38;10.50;99.90
30186;DHT22;31152;49.190;8.122;2024-03-23T15:29:04;10.30;99.90
30186;DHT22;31152;49.190;8.122;2024-03-23T15:31:40;9.50;99.90
30186;DHT22;31152;49.190;8.122;2024-03-23T15:34:06;8.40;99.90
30186;DHT22;31152;49.190;8.122;2024-03-23T15:36:36;7.80;99.90
30186;DHT22;31152;49.190;8.122;2024-03-23T15:39:04;7.50;99.90
30186;DHT22;31152;49.190;8.122;2024-03-23T15:41:35;7.30;99.90
30186;DHT22;31152;49.190;8.122;2024-03-23T15:44:02;7.20;99.90
30186;DHT22;31152;49.190;8.122;2024-03-23T15:46:27;7.20;99.90
30186;DHT22;31152;49.190;8.122;2024-03-23T15:48:53;7.30;99.90
30186;DHT22;31152;49.190;8.122;2024-03-23T15:51:20;7.40;99.90
30186;DHT22;31152;49.190;8.122;2024-03-23T15:53:48;7.40;99.90
30186;DHT22;31152;49.190;8.122;2024-03-23T15:56:17;7.60;99.90
30186;DHT22;31152;49.190;8.122;2024-03-23T15:58:43;8.20;99.90
30186;DHT22;31152;49.190;8.122;2024-03-23T16:01:09;9.80;99.90
30186;DHT22;31152;49.190;8.122;2024-03-23T16:03:36;11.00;99.90
30186;DHT22;31152;49.190;8.122;2024-03-23T16:06:04;11.70;99.90
30186;DHT22;31152;49.190;8.122;2024-03-23T16:08:31;11.40;99.90
30186;DHT22;31152;49.190;8.122;2024-03-23T16:11:04;10.70;99.90
30186;DHT22;31152;49.190;8.122;2024-03-23T16:13:34;9.80;99.90
30186;DHT22;31152;49.190;8.122;2024-03-23T16:16:04;9.40;99.90
30186;DHT22;31152;49.190;8.122;2024-03-23T16:18:36;9.60;99.90
30186;DHT22;31152;49.190;8.122;2024-03-23T16:21:03;9.60;99.90
30186;DHT22;31152;49.190;8.122;2024-03-23T16:23:32;9.30;99.90
30186;DHT22;31152;49.190;8.122;2024-03-23T16:25:58;8.90;99.90
30186;DHT22;31152;49.190;8.122;2024-03-23T16:28:46;8.60;99.90
30186;DHT22;31152;49.190;8.122;2024-03-23T16:31:14;8.20;99.90
30186;DHT22;31152;49.190;8.122;2024-03-23T16:33:43;8.00;99.90
30186;DHT22;31152;49.190;8.122;2024-03-23T16:36:10;7.90;99.90
30186;DHT22;31152;49.190;8.122;2024-03-23T16:38:40;7.60;99.90
30186;DHT22;31152;49.190;8.122;2024-03-23T16:41:08;7.10;99.90
30186;DHT22;31152;49.190;8.122;2024-03-23T16:43:37;6.50;99.90
30186;DHT22;31152;49.190;8.122;2024-03-23T16:46:06;6.20;99.90
30186;DHT22;31152;49.190;8.122;2024-03-23T16:48:33;6.20;99.90
30186;DHT22;31152;49.190;8.122;2024-03-23T16:51:00;6.10;99.90
30186;DHT22;31152;49.190;8.122;2024-03-23T16:53:27;6.00;99.90
30186;DHT22;31152;49.190;8.122;2024-03-23T16:58:32;5.90;99.90